sensor_id;sensor_type;location;lat;lon;timestamp;P1;durP1;ratioP1;P2;durP2;ratioP2
66669;SDS011;53568;52.164;4.472;2022-11-20T00:00:56;19.28;;;18.92;;
66669;SDS011;53568;52.164;4.472;2022-11-20T00:03:22;20.48;;;19.88;;
66669;SDS011;53568;52.164;4.472;2022-11-20T00:05:48;19.85;;;19.27;;
66669;SDS011;53568;52.164;4.472;2022-11-20T00:08:13;19.79;;;19.28;;
66669;SDS011;53568;52.164;4.472;2022-11-20T00:10:39;20.78;;;20.23;;
66669;SDS011;53568;52.164;4.472;2022-11-20T00:13:06;20.57;;;20.00;;
66669;SDS011;53568;52.164;4.472;2022-11-20T00:15:32;20.57;;;19.97;;
66669;SDS011;53568;52.164;4.472;2022-11-20T00:17:58;20.51;;;19.80;;
66669;SDS011;53568;52.164;4.472;2022-11-20T00:20:23;20.69;;;20.11;;
66669;SDS011;53568;52.164;4.472;2022-11-20T00:22:49;21.04;;;20.36;;
66669;SDS011;53568;52.164;4.472;2022-11-20T00:25:16;20.67;;;20.00;;
66669;SDS011;53568;52.164;4.472;2022-11-20T00:27:41;20.16;;;19.73;;
66669;SDS011;53568;52.164;4.472;2022-11-20T00:30:07;21.13;;;20.35;;
66669;SDS011;53568;52.164;4.472;2022-11-20T00:32:33;20.89;;;20.30;;
66669;SDS011;53568;52.164;4.472;2022-11-20T00:34:59;20.50;;;19.87;;
66669;SDS011;53568;52.164;4.472;2022-11-20T00:37:25;20.88;;;20.15;;
66669;SDS011;53568;52.164;4.472;2022-11-20T00:39:50;20.48;;;19.85;;
66669;SDS011;53568;52.164;4.472;2022-11-20T00:42:16;20.86;;;20.20;;
66669;SDS011;53568;52.164;4.472;2022-11-20T00:44:41;20.39;;;19.88;;
66669;SDS011;53568;52.164;4.472;2022-11-20T00:47:07;20.76;;;20.08;;
66669;SDS011;53568;52.164;4.472;2022-11-20T00:49:32;20.93;;;20.26;;
66669;SDS011;53568;52.164;4.472;2022-11-20T00:51:58;21.39;;;20.50;;
66669;SDS011;53568;52.164;4.472;2022-11-20T00:54:23;21.54;;;21.00;;
66669;SDS011;53568;52.164;4.472;2022-11-20T00:56:49;21.42;;;20.65;;
66669;SDS011;53568;52.164;4.472;2022-11-20T00:59:14;20.38;;;19.90;;
66669;SDS011;53568;52.164;4.472;2022-11-20T01:01:40;20.62;;;19.91;;
66669;SDS011;53568;52.164;4.472;2022-11-20T01:04:05;20.45;;;19.86;;
66669;SDS011;53568;52.164;4.472;2022-11-20T01:06:32;20.40;;;19.67;;
66669;SDS011;53568;52.164;4.472;2022-11-20T01:09:01;20.40;;;19.90;;
66669;SDS011;53568;52.164;4.472;2022-11-20T01:11:36;20.89;;;20.26;;
66669;SDS011;53568;52.164;4.472;2022-11-20T01:14:05;21.31;;;20.66;;
66669;SDS011;53568;52.164;4.472;2022-11-20T01:16:40;20.80;;;20.37;;
66669;SDS011;53568;52.164;4.472;2022-11-20T01:19:09;21.40;;;20.88;;
66669;SDS011;53568;52.164;4.472;2022-11-20T01:21:38;21.28;;;20.77;;
66669;SDS011;53568;52.164;4.472;2022-11-20T01:24:06;20.69;;;20.12;;
66669;SDS011;53568;52.164;4.472;2022-11-20T01:26:34;20.84;;;20.36;;
66669;SDS011;53568;52.164;4.472;2022-11-20T01:29:02;21.95;;;21.21;;
66669;SDS011;53568;52.164;4.472;2022-11-20T01:31:30;20.60;;;20.11;;
66669;SDS011;53568;52.164;4.472;2022-11-20T01:33:59;21.26;;;20.69;;
66669;SDS011;53568;52.164;4.472;2022-11-20T01:36:30;19.78;;;19.30;;
66669;SDS011;53568;52.164;4.472;2022-11-20T01:38:58;19.71;;;19.37;;
66669;SDS011;53568;52.164;4.472;2022-11-20T01:41:27;19.59;;;19.04;;
66669;SDS011;53568;52.164;4.472;2022-11-20T01:44:15;20.53;;;19.82;;
66669;SDS011;53568;52.164;4.472;2022-11-20T01:52:16;20.76;;;20.16;;
66669;SDS011;53568;52.164;4.472;2022-11-20T01:54:58;20.31;;;19.81;;
66669;SDS011;53568;52.164;4.472;2022-11-20T01:57:44;20.80;;;20.23;;
66669;SDS011;53568;52.164;4.472;2022-11-20T02:00:13;21.18;;;20.63;;
66669;SDS011;53568;52.164;4.472;2022-11-20T02:02:41;21.50;;;20.78;;
66669;SDS011;53568;52.164;4.472;2022-11-20T02:05:20;21.99;;;21.43;;
66669;SDS011;53568;52.164;4.472;2022-11-20T02:07:56;21.08;;;20.62;;
66669;SDS011;53568;52.164;4.472;2022-11-20T02:10:26;20.53;;;20.00;;
66669;SDS011;53568;52.164;4.472;2022-11-20T02:12:53;20.97;;;20.43;;
66669;SDS011;53568;52.164;4.472;2022-11-20T02:15:37;21.11;;;20.65;;
66669;SDS011;53568;52.164;4.472;2022-11-20T02:18:03;20.53;;;19.87;;
66669;SDS011;53568;52.164;4.472;2022-11-20T02:20:31;20.28;;;19.73;;
66669;SDS011;53568;52.164;4.472;2022-11-20T02:22:59;20.36;;;19.82;;
66669;SDS011;53568;52.164;4.472;2022-11-20T02:25:44;20.45;;;19.88;;
66669;SDS011;53568;52.164;4.472;2022-11-20T02:28:12;20.97;;;20.48;;
66669;SDS011;53568;52.164;4.472;2022-11-20T02:30:38;20.87;;;20.47;;
66669;SDS011;53568;52.164;4.472;2022-11-20T02:33:04;21.86;;;21.17;;
66669;SDS011;53568;52.164;4.472;2022-11-20T02:37:55;21.45;;;20.72;;
66669;SDS011;53568;52.164;4.472;2022-11-20T02:40:23;21.25;;;20.72;;
66669;SDS011;53568;52.164;4.472;2022-11-20T02:42:55;20.50;;;20.24;;
66669;SDS011;53568;52.164;4.472;2022-11-20T02:45:22;20.26;;;19.91;;
66669;SDS011;53568;52.164;4.472;2022-11-20T02:47:48;21.20;;;20.76;;
66669;SDS011;53568;52.164;4.472;2022-11-20T02:50:14;21.07;;;20.59;;
66669;SDS011;53568;52.164;4.472;2022-11-20T02:52:40;21.15;;;20.60;;
66669;SDS011;53568;52.164;4.472;2022-11-20T02:55:06;21.39;;;20.83;;
66669;SDS011;53568;52.164;4.472;2022-11-20T02:57:32;21.24;;;20.80;;
66669;SDS011;53568;52.164;4.472;2022-11-20T02:59:58;20.88;;;20.41;;
66669;SDS011;53568;52.164;4.472;2022-11-20T03:02:23;21.74;;;21.14;;
66669;SDS011;53568;52.164;4.472;2022-11-20T03:04:48;21.39;;;20.87;;
66669;SDS011;53568;52.164;4.472;2022-11-20T03:07:14;21.96;;;21.28;;
66669;SDS011;53568;52.164;4.472;2022-11-20T03:09:39;21.64;;;21.10;;
66669;SDS011;53568;52.164;4.472;2022-11-20T03:12:05;21.81;;;21.16;;
66669;SDS011;53568;52.164;4.472;2022-11-20T03:14:31;21.35;;;20.88;;
66669;SDS011;53568;52.164;4.472;2022-11-20T03:16:56;21.94;;;21.38;;
66669;SDS011;53568;52.164;4.472;2022-11-20T03:19:22;22.61;;;22.01;;
66669;SDS011;53568;52.164;4.472;2022-11-20T03:21:48;22.23;;;21.53;;
66669;SDS011;53568;52.164;4.472;2022-11-20T03:24:13;22.10;;;21.51;;
66669;SDS011;53568;52.164;4.472;2022-11-20T03:26:39;22.49;;;21.96;;
66669;SDS011;53568;52.164;4.472;2022-11-20T03:29:05;22.17;;;21.56;;
66669;SDS011;53568;52.164;4.472;2022-11-20T03:31:37;21.54;;;20.99;;
66669;SDS011;53568;52.164;4.472;2022-11-20T03:34:07;21.64;;;21.04;;
66669;SDS011;53568;52.164;4.472;2022-11-20T03:36:37;21.80;;;21.23;;
66669;SDS011;53568;52.164;4.472;2022-11-20T03:39:04;21.89;;;21.45;;
66669;SDS011;53568;52.164;4.472;2022-11-20T03:41:30;22.40;;;21.72;;
66669;SDS011;53568;52.164;4.472;2022-11-20T03:44:00;22.42;;;21.70;;
66669;SDS011;53568;52.164;4.472;2022-11-20T03:46:28;22.42;;;21.84;;
66669;SDS011;53568;52.164;4.472;2022-11-20T03:48:54;22.91;;;22.30;;
66669;SDS011;53568;52.164;4.472;2022-11-20T03:53:50;22.33;;;21.70;;
66669;SDS011;53568;52.164;4.472;2022-11-20T03:56:19;21.95;;;21.43;;
66669;SDS011;53568;52.164;4.472;2022-11-20T03:58:49;23.00;;;22.33;;
66669;SDS011;53568;52.164;4.472;2022-11-20T04:01:15;22.59;;;22.08;;
66669;SDS011;53568;52.164;4.472;2022-11-20T04:03:44;22.92;;;22.39;;
66669;SDS011;53568;52.164;4.472;2022-11-20T04:08:43;22.81;;;22.22;;
66669;SDS011;53568;52.164;4.472;2022-11-20T04:13:39;22.65;;;22.14;;
66669;SDS011;53568;52.164;4.472;2022-11-20T04:16:06;22.58;;;22.05;;
66669;SDS011;53568;52.164;4.472;2022-11-20T04:18:33;22.61;;;22.15;;
66669;SDS011;53568;52.164;4.472;2022-11-20T04:20:59;22.41;;;21.95;;
66669;SDS011;53568;52.164;4.472;2022-11-20T04:23:25;22.11;;;21.54;;
66669;SDS011;53568;52.164;4.472;2022-11-20T04:25:51;22.98;;;22.21;;
66669;SDS011;53568;52.164;4.472;2022-11-20T04:28:17;23.04;;;22.52;;
66669;SDS011;53568;52.164;4.472;2022-11-20T04:30:43;23.59;;;22.90;;
66669;SDS011;53568;52.164;4.472;2022-11-20T04:33:09;22.83;;;22.11;;
66669;SDS011;53568;52.164;4.472;2022-11-20T04:35:35;23.20;;;22.42;;
66669;SDS011;53568;52.164;4.472;2022-11-20T04:38:01;22.06;;;21.61;;
66669;SDS011;53568;52.164;4.472;2022-11-20T04:40:27;22.01;;;21.73;;
66669;SDS011;53568;52.164;4.472;2022-11-20T04:42:53;22.75;;;22.15;;
66669;SDS011;53568;52.164;4.472;2022-11-20T04:45:19;22.50;;;22.09;;
66669;SDS011;53568;52.164;4.472;2022-11-20T04:47:45;22.74;;;22.21;;
66669;SDS011;53568;52.164;4.472;2022-11-20T04:50:10;22.99;;;22.41;;
66669;SDS011;53568;52.164;4.472;2022-11-20T04:52:36;23.63;;;22.94;;
66669;SDS011;53568;52.164;4.472;2022-11-20T04:55:02;22.68;;;22.04;;
66669;SDS011;53568;52.164;4.472;2022-11-20T04:57:27;22.65;;;22.02;;
66669;SDS011;53568;52.164;4.472;2022-11-20T04:59:53;22.60;;;22.04;;
66669;SDS011;53568;52.164;4.472;2022-11-20T05:02:18;22.82;;;22.32;;
66669;SDS011;53568;52.164;4.472;2022-11-20T05:04:44;23.19;;;22.59;;
66669;SDS011;53568;52.164;4.472;2022-11-20T05:07:09;23.79;;;22.80;;
66669;SDS011;53568;52.164;4.472;2022-11-20T05:09:35;23.97;;;23.08;;
66669;SDS011;53568;52.164;4.472;2022-11-20T05:12:00;23.89;;;23.09;;
66669;SDS011;53568;52.164;4.472;2022-11-20T05:14:26;23.58;;;22.89;;
66669;SDS011;53568;52.164;4.472;2022-11-20T05:16:51;23.43;;;22.92;;
66669;SDS011;53568;52.164;4.472;2022-11-20T05:19:17;23.61;;;23.02;;
66669;SDS011;53568;52.164;4.472;2022-11-20T05:21:42;23.99;;;23.42;;
66669;SDS011;53568;52.164;4.472;2022-11-20T05:24:08;24.13;;;23.46;;
66669;SDS011;53568;52.164;4.472;2022-11-20T05:26:33;23.69;;;22.97;;
66669;SDS011;53568;52.164;4.472;2022-11-20T05:28:59;24.11;;;23.41;;
66669;SDS011;53568;52.164;4.472;2022-11-20T05:31:24;23.67;;;23.07;;
66669;SDS011;53568;52.164;4.472;2022-11-20T05:33:50;24.59;;;23.85;;
66669;SDS011;53568;52.164;4.472;2022-11-20T05:36:16;24.02;;;23.42;;
66669;SDS011;53568;52.164;4.472;2022-11-20T05:38:43;24.56;;;23.63;;
66669;SDS011;53568;52.164;4.472;2022-11-20T05:41:10;24.96;;;24.19;;
66669;SDS011;53568;52.164;4.472;2022-11-20T05:43:38;24.15;;;23.45;;
66669;SDS011;53568;52.164;4.472;2022-11-20T05:46:05;24.43;;;23.84;;
66669;SDS011;53568;52.164;4.472;2022-11-20T05:48:32;24.06;;;23.27;;
66669;SDS011;53568;52.164;4.472;2022-11-20T05:51:00;23.79;;;23.18;;
66669;SDS011;53568;52.164;4.472;2022-11-20T05:53:28;24.57;;;23.94;;
66669;SDS011;53568;52.164;4.472;2022-11-20T05:55:57;24.71;;;23.90;;
66669;SDS011;53568;52.164;4.472;2022-11-20T05:58:27;23.49;;;22.91;;
66669;SDS011;53568;52.164;4.472;2022-11-20T06:00:53;25.57;;;24.65;;
66669;SDS011;53568;52.164;4.472;2022-11-20T06:03:19;24.77;;;24.17;;
66669;SDS011;53568;52.164;4.472;2022-11-20T06:05:45;24.01;;;23.38;;
66669;SDS011;53568;52.164;4.472;2022-11-20T06:08:11;24.51;;;23.79;;
66669;SDS011;53568;52.164;4.472;2022-11-20T06:10:37;25.29;;;24.41;;
66669;SDS011;53568;52.164;4.472;2022-11-20T06:13:02;24.37;;;23.87;;
66669;SDS011;53568;52.164;4.472;2022-11-20T06:15:28;24.73;;;24.12;;
66669;SDS011;53568;52.164;4.472;2022-11-20T06:17:54;24.10;;;23.67;;
66669;SDS011;53568;52.164;4.472;2022-11-20T06:20:20;25.49;;;24.53;;
66669;SDS011;53568;52.164;4.472;2022-11-20T06:22:47;25.18;;;24.28;;
66669;SDS011;53568;52.164;4.472;2022-11-20T06:25:13;25.21;;;24.50;;
66669;SDS011;53568;52.164;4.472;2022-11-20T06:27:39;24.22;;;23.69;;
66669;SDS011;53568;52.164;4.472;2022-11-20T06:30:04;25.50;;;24.63;;
66669;SDS011;53568;52.164;4.472;2022-11-20T06:32:31;25.04;;;24.12;;
66669;SDS011;53568;52.164;4.472;2022-11-20T06:34:58;25.14;;;24.28;;
66669;SDS011;53568;52.164;4.472;2022-11-20T06:37:23;25.12;;;24.33;;
66669;SDS011;53568;52.164;4.472;2022-11-20T06:39:49;25.57;;;24.97;;
66669;SDS011;53568;52.164;4.472;2022-11-20T06:42:14;24.82;;;24.05;;
66669;SDS011;53568;52.164;4.472;2022-11-20T06:44:40;25.87;;;25.15;;
66669;SDS011;53568;52.164;4.472;2022-11-20T06:47:05;25.55;;;24.74;;
66669;SDS011;53568;52.164;4.472;2022-11-20T06:49:31;25.38;;;24.63;;
66669;SDS011;53568;52.164;4.472;2022-11-20T06:51:57;25.79;;;25.04;;
66669;SDS011;53568;52.164;4.472;2022-11-20T06:54:22;25.21;;;24.48;;
66669;SDS011;53568;52.164;4.472;2022-11-20T06:56:48;24.90;;;24.32;;
66669;SDS011;53568;52.164;4.472;2022-11-20T06:59:14;25.63;;;24.77;;
66669;SDS011;53568;52.164;4.472;2022-11-20T07:01:39;25.04;;;24.33;;
66669;SDS011;53568;52.164;4.472;2022-11-20T07:04:05;25.09;;;24.34;;
66669;SDS011;53568;52.164;4.472;2022-11-20T07:06:31;25.42;;;24.56;;
66669;SDS011;53568;52.164;4.472;2022-11-20T07:08:56;25.27;;;24.50;;
66669;SDS011;53568;52.164;4.472;2022-11-20T07:11:22;25.20;;;24.26;;
66669;SDS011;53568;52.164;4.472;2022-11-20T07:13:48;25.10;;;24.40;;
66669;SDS011;53568;52.164;4.472;2022-11-20T07:16:13;25.59;;;24.93;;
66669;SDS011;53568;52.164;4.472;2022-11-20T07:18:39;25.62;;;24.92;;
66669;SDS011;53568;52.164;4.472;2022-11-20T07:21:06;25.54;;;24.98;;
66669;SDS011;53568;52.164;4.472;2022-11-20T07:23:33;25.52;;;24.92;;
66669;SDS011;53568;52.164;4.472;2022-11-20T07:26:05;26.34;;;25.74;;
66669;SDS011;53568;52.164;4.472;2022-11-20T07:28:33;26.27;;;25.49;;
66669;SDS011;53568;52.164;4.472;2022-11-20T07:30:59;26.29;;;25.29;;
66669;SDS011;53568;52.164;4.472;2022-11-20T07:33:24;25.62;;;24.92;;
66669;SDS011;53568;52.164;4.472;2022-11-20T07:35:50;25.65;;;24.83;;
66669;SDS011;53568;52.164;4.472;2022-11-20T07:38:15;26.10;;;25.36;;
66669;SDS011;53568;52.164;4.472;2022-11-20T07:40:41;26.64;;;25.75;;
66669;SDS011;53568;52.164;4.472;2022-11-20T07:43:06;26.10;;;25.34;;
66669;SDS011;53568;52.164;4.472;2022-11-20T07:45:32;26.64;;;25.48;;
66669;SDS011;53568;52.164;4.472;2022-11-20T07:47:57;26.83;;;25.94;;
66669;SDS011;53568;52.164;4.472;2022-11-20T07:50:23;26.52;;;25.63;;
66669;SDS011;53568;52.164;4.472;2022-11-20T07:52:49;26.58;;;25.79;;
66669;SDS011;53568;52.164;4.472;2022-11-20T07:55:15;26.78;;;25.93;;
66669;SDS011;53568;52.164;4.472;2022-11-20T07:57:41;26.38;;;25.74;;
66669;SDS011;53568;52.164;4.472;2022-11-20T08:00:07;27.61;;;26.65;;
66669;SDS011;53568;52.164;4.472;2022-11-20T08:02:38;26.99;;;26.11;;
66669;SDS011;53568;52.164;4.472;2022-11-20T08:05:04;26.92;;;26.23;;
66669;SDS011;53568;52.164;4.472;2022-11-20T08:07:35;27.04;;;26.02;;
66669;SDS011;53568;52.164;4.472;2022-11-20T08:10:04;26.28;;;25.51;;
66669;SDS011;53568;52.164;4.472;2022-11-20T08:12:30;26.91;;;26.17;;
66669;SDS011;53568;52.164;4.472;2022-11-20T08:15:14;27.90;;;26.87;;
66669;SDS011;53568;52.164;4.472;2022-11-20T08:17:40;27.08;;;26.44;;
66669;SDS011;53568;52.164;4.472;2022-11-20T08:20:05;26.78;;;25.95;;
66669;SDS011;53568;52.164;4.472;2022-11-20T08:22:32;27.02;;;26.10;;
66669;SDS011;53568;52.164;4.472;2022-11-20T08:24:58;28.26;;;27.11;;
66669;SDS011;53568;52.164;4.472;2022-11-20T08:27:23;27.34;;;26.56;;
66669;SDS011;53568;52.164;4.472;2022-11-20T08:29:49;27.40;;;26.68;;
66669;SDS011;53568;52.164;4.472;2022-11-20T08:32:14;28.85;;;27.89;;
66669;SDS011;53568;52.164;4.472;2022-11-20T08:34:40;28.90;;;27.89;;
66669;SDS011;53568;52.164;4.472;2022-11-20T08:37:05;28.27;;;27.32;;
66669;SDS011;53568;52.164;4.472;2022-11-20T08:39:31;27.66;;;27.03;;
66669;SDS011;53568;52.164;4.472;2022-11-20T08:41:56;28.50;;;27.52;;
66669;SDS011;53568;52.164;4.472;2022-11-20T08:44:22;27.78;;;26.94;;
66669;SDS011;53568;52.164;4.472;2022-11-20T08:46:47;28.62;;;27.70;;
66669;SDS011;53568;52.164;4.472;2022-11-20T08:49:14;28.34;;;27.63;;
66669;SDS011;53568;52.164;4.472;2022-11-20T08:51:40;28.51;;;27.48;;
66669;SDS011;53568;52.164;4.472;2022-11-20T08:54:06;29.21;;;28.01;;
66669;SDS011;53568;52.164;4.472;2022-11-20T08:56:32;29.31;;;28.41;;
66669;SDS011;53568;52.164;4.472;2022-11-20T08:58:58;29.25;;;28.29;;
66669;SDS011;53568;52.164;4.472;2022-11-20T09:01:24;29.75;;;28.85;;
66669;SDS011;53568;52.164;4.472;2022-11-20T09:03:51;28.96;;;28.31;;
66669;SDS011;53568;52.164;4.472;2022-11-20T09:06:17;29.27;;;28.59;;
66669;SDS011;53568;52.164;4.472;2022-11-20T09:08:43;28.85;;;28.21;;
66669;SDS011;53568;52.164;4.472;2022-11-20T09:11:09;29.97;;;28.83;;
66669;SDS011;53568;52.164;4.472;2022-11-20T09:13:35;29.73;;;28.85;;
66669;SDS011;53568;52.164;4.472;2022-11-20T09:16:03;29.99;;;29.01;;
66669;SDS011;53568;52.164;4.472;2022-11-20T09:18:33;30.39;;;29.62;;
66669;SDS011;53568;52.164;4.472;2022-11-20T09:21:08;30.47;;;29.45;;
66669;SDS011;53568;52.164;4.472;2022-11-20T09:23:36;30.22;;;29.28;;
66669;SDS011;53568;52.164;4.472;2022-11-20T09:26:03;30.54;;;29.54;;
66669;SDS011;53568;52.164;4.472;2022-11-20T09:28:30;31.64;;;30.48;;
66669;SDS011;53568;52.164;4.472;2022-11-20T09:30:57;30.53;;;29.69;;
66669;SDS011;53568;52.164;4.472;2022-11-20T09:33:23;31.24;;;30.07;;
66669;SDS011;53568;52.164;4.472;2022-11-20T09:35:48;31.16;;;30.24;;
66669;SDS011;53568;52.164;4.472;2022-11-20T09:38:14;30.55;;;29.48;;
66669;SDS011;53568;52.164;4.472;2022-11-20T09:43:54;31.70;;;30.96;;
66669;SDS011;53568;52.164;4.472;2022-11-20T09:49:26;32.60;;;31.55;;
66669;SDS011;53568;52.164;4.472;2022-11-20T09:52:00;33.00;;;31.54;;
66669;SDS011;53568;52.164;4.472;2022-11-20T09:54:37;31.53;;;30.63;;
66669;SDS011;53568;52.164;4.472;2022-11-20T09:57:10;32.52;;;31.55;;
66669;SDS011;53568;52.164;4.472;2022-11-20T09:59:51;32.16;;;31.23;;
66669;SDS011;53568;52.164;4.472;2022-11-20T10:02:28;32.15;;;31.23;;
66669;SDS011;53568;52.164;4.472;2022-11-20T10:07:38;33.21;;;32.16;;
66669;SDS011;53568;52.164;4.472;2022-11-20T10:22:28;34.19;;;32.95;;
66669;SDS011;53568;52.164;4.472;2022-11-20T10:25:05;33.61;;;32.66;;
66669;SDS011;53568;52.164;4.472;2022-11-20T10:30:23;33.55;;;32.55;;
66669;SDS011;53568;52.164;4.472;2022-11-20T10:32:59;34.30;;;33.11;;
66669;SDS011;53568;52.164;4.472;2022-11-20T10:38:00;35.12;;;34.04;;
66669;SDS011;53568;52.164;4.472;2022-11-20T10:43:31;35.20;;;34.10;;
66669;SDS011;53568;52.164;4.472;2022-11-20T10:46:04;35.98;;;34.81;;
66669;SDS011;53568;52.164;4.472;2022-11-20T10:48:41;36.07;;;35.17;;
66669;SDS011;53568;52.164;4.472;2022-11-20T10:51:22;36.48;;;35.32;;
66669;SDS011;53568;52.164;4.472;2022-11-20T10:54:32;36.25;;;35.20;;
66669;SDS011;53568;52.164;4.472;2022-11-20T10:57:35;37.60;;;36.56;;
66669;SDS011;53568;52.164;4.472;2022-11-20T11:00:25;37.80;;;36.13;;
66669;SDS011;53568;52.164;4.472;2022-11-20T11:02:51;36.66;;;35.53;;
66669;SDS011;53568;52.164;4.472;2022-11-20T11:08:09;36.99;;;35.79;;
66669;SDS011;53568;52.164;4.472;2022-11-20T11:10:47;36.27;;;35.34;;
66669;SDS011;53568;52.164;4.472;2022-11-20T11:13:26;36.73;;;35.29;;
66669;SDS011;53568;52.164;4.472;2022-11-20T11:15:54;35.40;;;34.23;;
66669;SDS011;53568;52.164;4.472;2022-11-20T11:18:31;36.32;;;34.72;;
66669;SDS011;53568;52.164;4.472;2022-11-20T11:21:02;35.09;;;33.94;;
66669;SDS011;53568;52.164;4.472;2022-11-20T11:23:36;34.34;;;33.44;;
66669;SDS011;53568;52.164;4.472;2022-11-20T11:26:18;35.01;;;33.87;;
66669;SDS011;53568;52.164;4.472;2022-11-20T11:28:56;34.81;;;33.69;;
66669;SDS011;53568;52.164;4.472;2022-11-20T11:31:28;35.96;;;34.45;;
66669;SDS011;53568;52.164;4.472;2022-11-20T11:34:05;35.13;;;33.92;;
66669;SDS011;53568;52.164;4.472;2022-11-20T11:36:32;35.00;;;34.02;;
66669;SDS011;53568;52.164;4.472;2022-11-20T11:39:00;34.79;;;33.96;;
66669;SDS011;53568;52.164;4.472;2022-11-20T11:41:29;34.48;;;33.47;;
66669;SDS011;53568;52.164;4.472;2022-11-20T11:44:12;35.04;;;33.99;;
66669;SDS011;53568;52.164;4.472;2022-11-20T11:46:59;35.16;;;34.12;;
66669;SDS011;53568;52.164;4.472;2022-11-20T11:49:25;35.75;;;34.32;;
66669;SDS011;53568;52.164;4.472;2022-11-20T11:54:24;36.11;;;34.90;;
66669;SDS011;53568;52.164;4.472;2022-11-20T11:57:00;37.11;;;35.84;;
66669;SDS011;53568;52.164;4.472;2022-11-20T11:59:45;37.84;;;36.59;;
66669;SDS011;53568;52.164;4.472;2022-11-20T12:08:12;38.89;;;37.27;;
66669;SDS011;53568;52.164;4.472;2022-11-20T12:10:46;39.48;;;37.60;;
66669;SDS011;53568;52.164;4.472;2022-11-20T12:13:25;38.85;;;37.31;;
66669;SDS011;53568;52.164;4.472;2022-11-20T12:16:20;38.25;;;36.75;;
66669;SDS011;53568;52.164;4.472;2022-11-20T12:18:48;38.67;;;36.92;;
66669;SDS011;53568;52.164;4.472;2022-11-20T12:26:45;37.63;;;36.17;;
66669;SDS011;53568;52.164;4.472;2022-11-20T12:43:25;40.24;;;38.06;;
66669;SDS011;53568;52.164;4.472;2022-11-20T12:52:40;40.02;;;38.58;;
66669;SDS011;53568;52.164;4.472;2022-11-20T12:57:43;39.80;;;38.16;;
66669;SDS011;53568;52.164;4.472;2022-11-20T13:00:15;41.00;;;39.15;;
66669;SDS011;53568;52.164;4.472;2022-11-20T13:02:55;40.15;;;38.55;;
66669;SDS011;53568;52.164;4.472;2022-11-20T13:08:19;41.17;;;39.54;;
66669;SDS011;53568;52.164;4.472;2022-11-20T13:13:35;43.26;;;41.65;;
66669;SDS011;53568;52.164;4.472;2022-11-20T13:16:16;42.87;;;41.11;;
66669;SDS011;53568;52.164;4.472;2022-11-20T13:19:03;42.40;;;40.77;;
66669;SDS011;53568;52.164;4.472;2022-11-20T13:21:38;43.51;;;41.49;;
66669;SDS011;53568;52.164;4.472;2022-11-20T13:24:19;42.32;;;40.76;;
66669;SDS011;53568;52.164;4.472;2022-11-20T13:29:34;42.62;;;41.35;;
66669;SDS011;53568;52.164;4.472;2022-11-20T13:32:02;43.35;;;41.83;;
66669;SDS011;53568;52.164;4.472;2022-11-20T13:34:31;43.50;;;41.49;;
66669;SDS011;53568;52.164;4.472;2022-11-20T13:37:01;43.96;;;41.85;;
66669;SDS011;53568;52.164;4.472;2022-11-20T13:39:35;43.39;;;41.60;;
66669;SDS011;53568;52.164;4.472;2022-11-20T13:44:47;42.89;;;41.22;;
66669;SDS011;53568;52.164;4.472;2022-11-20T13:47:28;44.07;;;42.07;;
66669;SDS011;53568;52.164;4.472;2022-11-20T13:49:55;45.61;;;42.55;;
66669;SDS011;53568;52.164;4.472;2022-11-20T13:52:29;43.50;;;41.45;;
66669;SDS011;53568;52.164;4.472;2022-11-20T14:01:16;43.58;;;41.81;;
66669;SDS011;53568;52.164;4.472;2022-11-20T14:03:46;44.06;;;42.07;;
66669;SDS011;53568;52.164;4.472;2022-11-20T14:06:22;43.97;;;42.08;;
66669;SDS011;53568;52.164;4.472;2022-11-20T14:08:52;42.21;;;40.36;;
66669;SDS011;53568;52.164;4.472;2022-11-20T14:11:19;42.74;;;41.02;;
66669;SDS011;53568;52.164;4.472;2022-11-20T14:13:51;43.29;;;41.17;;
66669;SDS011;53568;52.164;4.472;2022-11-20T14:16:20;43.77;;;41.74;;
66669;SDS011;53568;52.164;4.472;2022-11-20T14:18:46;42.82;;;41.22;;
66669;SDS011;53568;52.164;4.472;2022-11-20T14:21:20;43.74;;;42.06;;
66669;SDS011;53568;52.164;4.472;2022-11-20T14:23:54;44.47;;;42.46;;
66669;SDS011;53568;52.164;4.472;2022-11-20T14:26:31;43.67;;;41.87;;
66669;SDS011;53568;52.164;4.472;2022-11-20T14:28:58;43.47;;;41.57;;
66669;SDS011;53568;52.164;4.472;2022-11-20T14:31:25;43.43;;;41.86;;
66669;SDS011;53568;52.164;4.472;2022-11-20T14:33:53;44.76;;;42.87;;
66669;SDS011;53568;52.164;4.472;2022-11-20T14:36:21;44.32;;;42.50;;
66669;SDS011;53568;52.164;4.472;2022-11-20T14:38:50;45.63;;;43.33;;
66669;SDS011;53568;52.164;4.472;2022-11-20T14:41:21;46.15;;;43.98;;
66669;SDS011;53568;52.164;4.472;2022-11-20T14:44:08;45.77;;;43.60;;
66669;SDS011;53568;52.164;4.472;2022-11-20T14:46:35;47.27;;;44.96;;
66669;SDS011;53568;52.164;4.472;2022-11-20T14:49:01;46.17;;;44.38;;
66669;SDS011;53568;52.164;4.472;2022-11-20T14:51:36;46.31;;;44.27;;
66669;SDS011;53568;52.164;4.472;2022-11-20T14:56:38;44.84;;;42.71;;
66669;SDS011;53568;52.164;4.472;2022-11-20T14:59:04;46.17;;;43.53;;
66669;SDS011;53568;52.164;4.472;2022-11-20T15:01:30;44.52;;;42.40;;
66669;SDS011;53568;52.164;4.472;2022-11-20T15:06:34;45.67;;;42.90;;
66669;SDS011;53568;52.164;4.472;2022-11-20T15:09:02;44.73;;;42.37;;
66669;SDS011;53568;52.164;4.472;2022-11-20T15:11:33;45.11;;;42.78;;
66669;SDS011;53568;52.164;4.472;2022-11-20T15:14:02;44.96;;;42.63;;
66669;SDS011;53568;52.164;4.472;2022-11-20T15:16:31;45.09;;;42.72;;
66669;SDS011;53568;52.164;4.472;2022-11-20T15:18:57;42.87;;;41.23;;
66669;SDS011;53568;52.164;4.472;2022-11-20T15:21:24;41.37;;;39.74;;
66669;SDS011;53568;52.164;4.472;2022-11-20T15:23:49;42.06;;;39.66;;
66669;SDS011;53568;52.164;4.472;2022-11-20T15:26:18;40.44;;;38.42;;
66669;SDS011;53568;52.164;4.472;2022-11-20T15:28:49;39.21;;;37.69;;
66669;SDS011;53568;52.164;4.472;2022-11-20T15:31:16;37.26;;;36.02;;
66669;SDS011;53568;52.164;4.472;2022-11-20T15:33:44;36.39;;;35.35;;
66669;SDS011;53568;52.164;4.472;2022-11-20T15:36:10;36.88;;;35.56;;
66669;SDS011;53568;52.164;4.472;2022-11-20T15:38:36;37.49;;;36.26;;
66669;SDS011;53568;52.164;4.472;2022-11-20T15:41:02;37.49;;;36.23;;
66669;SDS011;53568;52.164;4.472;2022-11-20T15:43:28;37.83;;;36.56;;
66669;SDS011;53568;52.164;4.472;2022-11-20T15:45:54;38.37;;;37.30;;
66669;SDS011;53568;52.164;4.472;2022-11-20T15:48:29;39.16;;;37.77;;
66669;SDS011;53568;52.164;4.472;2022-11-20T15:53:34;38.71;;;37.82;;
66669;SDS011;53568;52.164;4.472;2022-11-20T15:56:00;38.91;;;37.89;;
66669;SDS011;53568;52.164;4.472;2022-11-20T15:58:26;39.22;;;38.03;;
66669;SDS011;53568;52.164;4.472;2022-11-20T16:00:52;38.89;;;37.73;;
66669;SDS011;53568;52.164;4.472;2022-11-20T16:03:18;39.30;;;38.17;;
66669;SDS011;53568;52.164;4.472;2022-11-20T16:05:44;37.99;;;36.90;;
66669;SDS011;53568;52.164;4.472;2022-11-20T16:08:09;38.31;;;37.07;;
66669;SDS011;53568;52.164;4.472;2022-11-20T16:10:35;37.12;;;36.11;;
66669;SDS011;53568;52.164;4.472;2022-11-20T16:13:01;37.38;;;36.32;;
66669;SDS011;53568;52.164;4.472;2022-11-20T16:15:46;36.20;;;35.41;;
66669;SDS011;53568;52.164;4.472;2022-11-20T16:18:18;36.25;;;35.38;;
66669;SDS011;53568;52.164;4.472;2022-11-20T16:20:47;36.30;;;35.25;;